sensor_id;sensor_type;location;lat;lon;timestamp;P1;durP1;ratioP1;P2;durP2;ratioP2
51384;SDS011;37478;55.682;37.462;2022-12-18T00:00:29;17.25;;;9.25;;
51384;SDS011;37478;55.682;37.462;2022-12-18T00:02:55;18.42;;;8.05;;
51384;SDS011;37478;55.682;37.462;2022-12-18T00:05:20;17.20;;;8.90;;
51384;SDS011;37478;55.682;37.462;2022-12-18T00:07:45;18.58;;;9.57;;
51384;SDS011;37478;55.682;37.462;2022-12-18T00:10:11;16.98;;;9.25;;
51384;SDS011;37478;55.682;37.462;2022-12-18T00:12:36;19.17;;;9.23;;
51384;SDS011;37478;55.682;37.462;2022-12-18T00:15:01;20.52;;;8.45;;
51384;SDS011;37478;55.682;37.462;2022-12-18T00:17:27;15.70;;;7.80;;
51384;SDS011;37478;55.682;37.462;2022-12-18T00:19:52;19.73;;;9.50;;
51384;SDS011;37478;55.682;37.462;2022-12-18T00:22:17;17.98;;;8.50;;
51384;SDS011;37478;55.682;37.462;2022-12-18T00:24:43;16.02;;;7.75;;
51384;SDS011;37478;55.682;37.462;2022-12-18T00:27:08;21.35;;;10.00;;
51384;SDS011;37478;55.682;37.462;2022-12-18T00:29:33;13.43;;;6.95;;
51384;SDS011;37478;55.682;37.462;2022-12-18T00:31:59;16.35;;;8.55;;
51384;SDS011;37478;55.682;37.462;2022-12-18T00:34:24;17.63;;;9.88;;
51384;SDS011;37478;55.682;37.462;2022-12-18T00:36:49;19.35;;;8.48;;
51384;SDS011;37478;55.682;37.462;2022-12-18T00:39:15;19.85;;;9.48;;
51384;SDS011;37478;55.682;37.462;2022-12-18T00:41:40;18.98;;;8.27;;
51384;SDS011;37478;55.682;37.462;2022-12-18T00:44:23;13.05;;;8.20;;
51384;SDS011;37478;55.682;37.462;2022-12-18T00:46:49;14.32;;;6.95;;
51384;SDS011;37478;55.682;37.462;2022-12-18T00:49:15;21.90;;;9.18;;
51384;SDS011;37478;55.682;37.462;2022-12-18T00:51:40;16.20;;;9.00;;
51384;SDS011;37478;55.682;37.462;2022-12-18T00:54:06;15.93;;;7.93;;
51384;SDS011;37478;55.682;37.462;2022-12-18T00:56:31;17.00;;;8.52;;
51384;SDS011;37478;55.682;37.462;2022-12-18T00:58:56;12.95;;;7.03;;
51384;SDS011;37478;55.682;37.462;2022-12-18T01:01:22;16.83;;;7.85;;
51384;SDS011;37478;55.682;37.462;2022-12-18T01:03:47;16.92;;;9.38;;
51384;SDS011;37478;55.682;37.462;2022-12-18T01:06:13;16.55;;;8.98;;
51384;SDS011;37478;55.682;37.462;2022-12-18T01:08:39;20.45;;;8.35;;
51384;SDS011;37478;55.682;37.462;2022-12-18T01:11:11;16.08;;;8.18;;
51384;SDS011;37478;55.682;37.462;2022-12-18T01:13:38;18.38;;;8.95;;
51384;SDS011;37478;55.682;37.462;2022-12-18T01:16:03;15.40;;;7.78;;
51384;SDS011;37478;55.682;37.462;2022-12-18T01:18:29;21.92;;;9.98;;
51384;SDS011;37478;55.682;37.462;2022-12-18T01:20:54;20.20;;;8.90;;
51384;SDS011;37478;55.682;37.462;2022-12-18T01:23:19;18.60;;;9.57;;
51384;SDS011;37478;55.682;37.462;2022-12-18T01:25:44;16.98;;;8.48;;
51384;SDS011;37478;55.682;37.462;2022-12-18T01:28:10;19.25;;;11.52;;
51384;SDS011;37478;55.682;37.462;2022-12-18T01:30:36;17.80;;;8.30;;
51384;SDS011;37478;55.682;37.462;2022-12-18T01:33:01;16.52;;;9.05;;
51384;SDS011;37478;55.682;37.462;2022-12-18T01:35:28;16.73;;;8.23;;
51384;SDS011;37478;55.682;37.462;2022-12-18T01:37:54;22.10;;;9.73;;
51384;SDS011;37478;55.682;37.462;2022-12-18T01:40:20;20.92;;;10.00;;
51384;SDS011;37478;55.682;37.462;2022-12-18T01:42:49;15.95;;;8.25;;
51384;SDS011;37478;55.682;37.462;2022-12-18T01:53:07;16.42;;;7.55;;
51384;SDS011;37478;55.682;37.462;2022-12-18T01:55:36;13.07;;;7.55;;
51384;SDS011;37478;55.682;37.462;2022-12-18T01:58:03;18.48;;;8.43;;
51384;SDS011;37478;55.682;37.462;2022-12-18T02:00:29;15.73;;;7.97;;
51384;SDS011;37478;55.682;37.462;2022-12-18T02:02:54;13.65;;;6.03;;
51384;SDS011;37478;55.682;37.462;2022-12-18T02:06:21;19.00;;;7.93;;
51384;SDS011;37478;55.682;37.462;2022-12-18T02:10:48;13.50;;;7.05;;
51384;SDS011;37478;55.682;37.462;2022-12-18T02:15:48;12.50;;;6.97;;
51384;SDS011;37478;55.682;37.462;2022-12-18T02:18:18;12.73;;;7.05;;
51384;SDS011;37478;55.682;37.462;2022-12-18T02:20:47;15.13;;;7.53;;
51384;SDS011;37478;55.682;37.462;2022-12-18T02:24:18;13.50;;;6.38;;
51384;SDS011;37478;55.682;37.462;2022-12-18T02:26:16;15.25;;;8.10;;
51384;SDS011;37478;55.682;37.462;2022-12-18T02:28:49;11.95;;;6.40;;
51384;SDS011;37478;55.682;37.462;2022-12-18T02:31:18;15.10;;;8.32;;
51384;SDS011;37478;55.682;37.462;2022-12-18T02:33:47;14.45;;;6.78;;
51384;SDS011;37478;55.682;37.462;2022-12-18T02:36:13;11.98;;;6.90;;
51384;SDS011;37478;55.682;37.462;2022-12-18T02:38:40;12.68;;;6.45;;
51384;SDS011;37478;55.682;37.462;2022-12-18T02:41:07;15.75;;;8.02;;
51384;SDS011;37478;55.682;37.462;2022-12-18T02:43:32;18.20;;;7.97;;
51384;SDS011;37478;55.682;37.462;2022-12-18T02:45:58;17.88;;;8.00;;
51384;SDS011;37478;55.682;37.462;2022-12-18T02:48:26;12.77;;;6.65;;
51384;SDS011;37478;55.682;37.462;2022-12-18T02:51:11;14.07;;;6.75;;
51384;SDS011;37478;55.682;37.462;2022-12-18T02:53:45;14.98;;;8.32;;
51384;SDS011;37478;55.682;37.462;2022-12-18T02:56:18;12.32;;;6.50;;
51384;SDS011;37478;55.682;37.462;2022-12-18T03:01:19;12.82;;;6.93;;
51384;SDS011;37478;55.682;37.462;2022-12-18T03:03:47;16.38;;;7.05;;
51384;SDS011;37478;55.682;37.462;2022-12-18T03:06:25;14.82;;;8.10;;
51384;SDS011;37478;55.682;37.462;2022-12-18T03:08:54;19.05;;;9.23;;
51384;SDS011;37478;55.682;37.462;2022-12-18T03:11:21;16.58;;;7.88;;
51384;SDS011;37478;55.682;37.462;2022-12-18T03:14:06;15.60;;;6.30;;
51384;SDS011;37478;55.682;37.462;2022-12-18T03:16:32;11.00;;;6.05;;
51384;SDS011;37478;55.682;37.462;2022-12-18T03:19:00;12.18;;;6.65;;
51384;SDS011;37478;55.682;37.462;2022-12-18T03:21:28;12.18;;;8.00;;
51384;SDS011;37478;55.682;37.462;2022-12-18T03:23:55;15.70;;;8.52;;
51384;SDS011;37478;55.682;37.462;2022-12-18T03:26:22;20.60;;;8.70;;
51384;SDS011;37478;55.682;37.462;2022-12-18T03:28:50;15.20;;;7.82;;
51384;SDS011;37478;55.682;37.462;2022-12-18T03:31:16;14.38;;;8.82;;
51384;SDS011;37478;55.682;37.462;2022-12-18T03:33:53;13.73;;;7.75;;
51384;SDS011;37478;55.682;37.462;2022-12-18T03:38:43;16.90;;;7.03;;
51384;SDS011;37478;55.682;37.462;2022-12-18T03:41:19;16.05;;;7.75;;
51384;SDS011;37478;55.682;37.462;2022-12-18T03:43:53;13.57;;;7.32;;
51384;SDS011;37478;55.682;37.462;2022-12-18T03:46:24;14.50;;;6.97;;
51384;SDS011;37478;55.682;37.462;2022-12-18T03:48:52;14.45;;;7.22;;
51384;SDS011;37478;55.682;37.462;2022-12-18T03:51:24;14.30;;;7.18;;
51384;SDS011;37478;55.682;37.462;2022-12-18T03:53:53;13.18;;;5.78;;
51384;SDS011;37478;55.682;37.462;2022-12-18T03:56:20;13.70;;;6.97;;
51384;SDS011;37478;55.682;37.462;2022-12-18T03:58:46;15.13;;;7.45;;
51384;SDS011;37478;55.682;37.462;2022-12-18T04:01:13;14.88;;;6.85;;
51384;SDS011;37478;55.682;37.462;2022-12-18T04:03:39;17.90;;;7.78;;
51384;SDS011;37478;55.682;37.462;2022-12-18T04:06:06;12.35;;;6.15;;
51384;SDS011;37478;55.682;37.462;2022-12-18T04:08:32;17.10;;;8.63;;
51384;SDS011;37478;55.682;37.462;2022-12-18T04:10:59;11.75;;;6.28;;
51384;SDS011;37478;55.682;37.462;2022-12-18T04:13:28;13.02;;;6.50;;
51384;SDS011;37478;55.682;37.462;2022-12-18T04:15:53;11.48;;;6.70;;
51384;SDS011;37478;55.682;37.462;2022-12-18T04:18:19;14.55;;;8.07;;
51384;SDS011;37478;55.682;37.462;2022-12-18T04:20:44;12.90;;;7.45;;
51384;SDS011;37478;55.682;37.462;2022-12-18T04:23:09;13.90;;;6.13;;
51384;SDS011;37478;55.682;37.462;2022-12-18T04:25:34;15.77;;;7.28;;
51384;SDS011;37478;55.682;37.462;2022-12-18T04:28:00;12.27;;;6.57;;
51384;SDS011;37478;55.682;37.462;2022-12-18T04:30:25;14.40;;;6.78;;
51384;SDS011;37478;55.682;37.462;2022-12-18T04:32:50;15.77;;;7.32;;
51384;SDS011;37478;55.682;37.462;2022-12-18T04:35:16;10.88;;;6.53;;
51384;SDS011;37478;55.682;37.462;2022-12-18T04:37:41;10.18;;;6.57;;
51384;SDS011;37478;55.682;37.462;2022-12-18T04:40:06;10.65;;;6.53;;
51384;SDS011;37478;55.682;37.462;2022-12-18T04:42:32;13.85;;;7.65;;
51384;SDS011;37478;55.682;37.462;2022-12-18T04:44:57;12.48;;;6.82;;
51384;SDS011;37478;55.682;37.462;2022-12-18T04:47:23;14.75;;;7.53;;
51384;SDS011;37478;55.682;37.462;2022-12-18T04:49:48;12.27;;;7.60;;
51384;SDS011;37478;55.682;37.462;2022-12-18T04:52:14;8.38;;;5.03;;
51384;SDS011;37478;55.682;37.462;2022-12-18T04:54:39;11.77;;;5.88;;
51384;SDS011;37478;55.682;37.462;2022-12-18T04:57:04;13.00;;;5.80;;
51384;SDS011;37478;55.682;37.462;2022-12-18T04:59:30;10.63;;;5.78;;
51384;SDS011;37478;55.682;37.462;2022-12-18T05:01:55;10.57;;;5.63;;
51384;SDS011;37478;55.682;37.462;2022-12-18T05:04:21;10.20;;;6.53;;
51384;SDS011;37478;55.682;37.462;2022-12-18T05:06:46;14.38;;;7.03;;
51384;SDS011;37478;55.682;37.462;2022-12-18T05:09:11;12.80;;;6.70;;
51384;SDS011;37478;55.682;37.462;2022-12-18T05:11:37;13.60;;;5.60;;
51384;SDS011;37478;55.682;37.462;2022-12-18T05:14:02;10.50;;;6.25;;
51384;SDS011;37478;55.682;37.462;2022-12-18T05:16:27;19.00;;;6.78;;
51384;SDS011;37478;55.682;37.462;2022-12-18T05:18:52;16.38;;;7.93;;
51384;SDS011;37478;55.682;37.462;2022-12-18T05:21:18;17.70;;;7.45;;
51384;SDS011;37478;55.682;37.462;2022-12-18T05:23:43;11.45;;;6.38;;
51384;SDS011;37478;55.682;37.462;2022-12-18T05:26:16;9.30;;;5.70;;
51384;SDS011;37478;55.682;37.462;2022-12-18T05:28:42;9.98;;;5.07;;
51384;SDS011;37478;55.682;37.462;2022-12-18T05:31:07;13.80;;;7.32;;
51384;SDS011;37478;55.682;37.462;2022-12-18T05:33:33;14.05;;;6.20;;
51384;SDS011;37478;55.682;37.462;2022-12-18T05:35:59;8.35;;;5.50;;
51384;SDS011;37478;55.682;37.462;2022-12-18T05:38:25;15.07;;;7.05;;
51384;SDS011;37478;55.682;37.462;2022-12-18T05:40:51;12.45;;;6.68;;
51384;SDS011;37478;55.682;37.462;2022-12-18T05:43:17;11.02;;;6.22;;
51384;SDS011;37478;55.682;37.462;2022-12-18T05:45:43;20.10;;;6.85;;
51384;SDS011;37478;55.682;37.462;2022-12-18T05:48:08;20.50;;;7.13;;
51384;SDS011;37478;55.682;37.462;2022-12-18T05:50:34;12.35;;;7.80;;
51384;SDS011;37478;55.682;37.462;2022-12-18T05:53:00;18.05;;;8.80;;
51384;SDS011;37478;55.682;37.462;2022-12-18T05:55:25;13.57;;;6.90;;
51384;SDS011;37478;55.682;37.462;2022-12-18T05:57:51;14.80;;;7.22;;
51384;SDS011;37478;55.682;37.462;2022-12-18T06:00:16;15.10;;;7.20;;
51384;SDS011;37478;55.682;37.462;2022-12-18T06:02:41;12.88;;;7.65;;
51384;SDS011;37478;55.682;37.462;2022-12-18T06:05:07;13.80;;;6.63;;
51384;SDS011;37478;55.682;37.462;2022-12-18T06:07:32;13.50;;;6.45;;
51384;SDS011;37478;55.682;37.462;2022-12-18T06:09:58;11.32;;;5.68;;
51384;SDS011;37478;55.682;37.462;2022-12-18T06:12:23;9.48;;;5.93;;
51384;SDS011;37478;55.682;37.462;2022-12-18T06:14:48;13.52;;;7.35;;
51384;SDS011;37478;55.682;37.462;2022-12-18T06:17:13;17.42;;;7.28;;
51384;SDS011;37478;55.682;37.462;2022-12-18T06:19:39;12.00;;;5.82;;
51384;SDS011;37478;55.682;37.462;2022-12-18T06:22:04;11.48;;;6.47;;
51384;SDS011;37478;55.682;37.462;2022-12-18T06:24:29;16.05;;;6.75;;
51384;SDS011;37478;55.682;37.462;2022-12-18T06:26:55;10.13;;;6.13;;
51384;SDS011;37478;55.682;37.462;2022-12-18T06:29:20;13.25;;;7.07;;
51384;SDS011;37478;55.682;37.462;2022-12-18T06:31:45;11.13;;;6.47;;
51384;SDS011;37478;55.682;37.462;2022-12-18T06:34:11;13.60;;;6.32;;
51384;SDS011;37478;55.682;37.462;2022-12-18T06:36:36;11.88;;;5.97;;
51384;SDS011;37478;55.682;37.462;2022-12-18T06:39:02;11.90;;;6.75;;
51384;SDS011;37478;55.682;37.462;2022-12-18T06:41:27;11.23;;;5.65;;
51384;SDS011;37478;55.682;37.462;2022-12-18T06:43:52;12.63;;;4.95;;
51384;SDS011;37478;55.682;37.462;2022-12-18T06:46:18;14.52;;;6.80;;
51384;SDS011;37478;55.682;37.462;2022-12-18T06:48:46;15.38;;;7.50;;
51384;SDS011;37478;55.682;37.462;2022-12-18T06:51:11;14.05;;;6.60;;
51384;SDS011;37478;55.682;37.462;2022-12-18T06:53:36;16.80;;;6.63;;
51384;SDS011;37478;55.682;37.462;2022-12-18T06:56:02;12.73;;;6.93;;
51384;SDS011;37478;55.682;37.462;2022-12-18T06:58:28;14.50;;;7.22;;
51384;SDS011;37478;55.682;37.462;2022-12-18T07:00:53;10.48;;;6.15;;
51384;SDS011;37478;55.682;37.462;2022-12-18T07:03:18;10.90;;;6.72;;
51384;SDS011;37478;55.682;37.462;2022-12-18T07:05:44;11.32;;;6.30;;
51384;SDS011;37478;55.682;37.462;2022-12-18T07:08:09;8.40;;;4.80;;
51384;SDS011;37478;55.682;37.462;2022-12-18T07:10:40;10.85;;;5.82;;
51384;SDS011;37478;55.682;37.462;2022-12-18T07:13:05;16.15;;;6.32;;
51384;SDS011;37478;55.682;37.462;2022-12-18T07:15:31;17.35;;;7.50;;
51384;SDS011;37478;55.682;37.462;2022-12-18T07:17:56;12.55;;;6.85;;
51384;SDS011;37478;55.682;37.462;2022-12-18T07:20:21;13.60;;;5.80;;
51384;SDS011;37478;55.682;37.462;2022-12-18T07:22:47;12.80;;;7.28;;
51384;SDS011;37478;55.682;37.462;2022-12-18T07:25:12;12.10;;;6.40;;
51384;SDS011;37478;55.682;37.462;2022-12-18T07:27:38;12.43;;;6.25;;
51384;SDS011;37478;55.682;37.462;2022-12-18T07:30:03;8.13;;;4.95;;
51384;SDS011;37478;55.682;37.462;2022-12-18T07:32:29;11.20;;;6.00;;
51384;SDS011;37478;55.682;37.462;2022-12-18T07:34:55;12.43;;;6.43;;
51384;SDS011;37478;55.682;37.462;2022-12-18T07:37:20;12.50;;;6.22;;
51384;SDS011;37478;55.682;37.462;2022-12-18T07:39:46;13.77;;;6.15;;
51384;SDS011;37478;55.682;37.462;2022-12-18T07:42:11;8.30;;;4.90;;
51384;SDS011;37478;55.682;37.462;2022-12-18T07:44:55;11.07;;;6.13;;
51384;SDS011;37478;55.682;37.462;2022-12-18T07:47:20;9.07;;;5.70;;
51384;SDS011;37478;55.682;37.462;2022-12-18T07:49:45;11.93;;;5.68;;
51384;SDS011;37478;55.682;37.462;2022-12-18T07:52:11;10.73;;;5.28;;
51384;SDS011;37478;55.682;37.462;2022-12-18T07:54:37;6.20;;;3.80;;
51384;SDS011;37478;55.682;37.462;2022-12-18T07:57:02;9.27;;;4.28;;
51384;SDS011;37478;55.682;37.462;2022-12-18T07:59:28;6.57;;;3.78;;
51384;SDS011;37478;55.682;37.462;2022-12-18T08:01:53;7.53;;;4.43;;
51384;SDS011;37478;55.682;37.462;2022-12-18T08:04:18;10.38;;;6.55;;
51384;SDS011;37478;55.682;37.462;2022-12-18T08:06:44;11.85;;;6.55;;
51384;SDS011;37478;55.682;37.462;2022-12-18T08:09:09;14.65;;;5.47;;
51384;SDS011;37478;55.682;37.462;2022-12-18T08:11:35;8.82;;;5.03;;
51384;SDS011;37478;55.682;37.462;2022-12-18T08:14:00;12.25;;;5.95;;
51384;SDS011;37478;55.682;37.462;2022-12-18T08:16:25;12.18;;;6.82;;
51384;SDS011;37478;55.682;37.462;2022-12-18T08:18:51;9.40;;;6.22;;
51384;SDS011;37478;55.682;37.462;2022-12-18T08:21:21;9.27;;;6.25;;
51384;SDS011;37478;55.682;37.462;2022-12-18T08:23:48;15.00;;;7.55;;
51384;SDS011;37478;55.682;37.462;2022-12-18T08:26:13;12.30;;;6.25;;
51384;SDS011;37478;55.682;37.462;2022-12-18T08:28:39;14.80;;;7.53;;
51384;SDS011;37478;55.682;37.462;2022-12-18T08:31:05;15.98;;;6.38;;
51384;SDS011;37478;55.682;37.462;2022-12-18T08:33:31;11.68;;;6.22;;
51384;SDS011;37478;55.682;37.462;2022-12-18T08:35:57;12.05;;;5.90;;
51384;SDS011;37478;55.682;37.462;2022-12-18T08:38:23;11.75;;;5.53;;
51384;SDS011;37478;55.682;37.462;2022-12-18T08:40:48;12.15;;;6.78;;
51384;SDS011;37478;55.682;37.462;2022-12-18T08:43:13;8.90;;;4.47;;
51384;SDS011;37478;55.682;37.462;2022-12-18T08:45:57;11.27;;;6.15;;
51384;SDS011;37478;55.682;37.462;2022-12-18T08:48:23;15.07;;;7.75;;
51384;SDS011;37478;55.682;37.462;2022-12-18T08:51:06;10.50;;;5.28;;
51384;SDS011;37478;55.682;37.462;2022-12-18T08:53:31;10.13;;;5.60;;
51384;SDS011;37478;55.682;37.462;2022-12-18T08:55:57;10.88;;;5.45;;
51384;SDS011;37478;55.682;37.462;2022-12-18T08:58:22;12.27;;;6.05;;
51384;SDS011;37478;55.682;37.462;2022-12-18T09:00:48;11.20;;;5.43;;
51384;SDS011;37478;55.682;37.462;2022-12-18T09:03:17;12.80;;;8.77;;
51384;SDS011;37478;55.682;37.462;2022-12-18T09:05:43;11.35;;;5.43;;
51384;SDS011;37478;55.682;37.462;2022-12-18T09:08:08;11.00;;;5.80;;
51384;SDS011;37478;55.682;37.462;2022-12-18T09:10:34;9.55;;;5.90;;
51384;SDS011;37478;55.682;37.462;2022-12-18T09:13:05;8.05;;;4.72;;
51384;SDS011;37478;55.682;37.462;2022-12-18T09:15:31;11.18;;;7.05;;
51384;SDS011;37478;55.682;37.462;2022-12-18T09:17:56;9.60;;;5.15;;
51384;SDS011;37478;55.682;37.462;2022-12-18T09:20:21;10.98;;;5.88;;
51384;SDS011;37478;55.682;37.462;2022-12-18T09:22:47;8.07;;;5.38;;
51384;SDS011;37478;55.682;37.462;2022-12-18T09:25:12;11.43;;;5.03;;
51384;SDS011;37478;55.682;37.462;2022-12-18T09:27:37;14.25;;;6.32;;
51384;SDS011;37478;55.682;37.462;2022-12-18T09:30:03;9.07;;;4.85;;
51384;SDS011;37478;55.682;37.462;2022-12-18T09:32:28;12.30;;;5.43;;
51384;SDS011;37478;55.682;37.462;2022-12-18T09:34:53;9.73;;;5.78;;
51384;SDS011;37478;55.682;37.462;2022-12-18T09:37:19;12.00;;;6.82;;
51384;SDS011;37478;55.682;37.462;2022-12-18T09:39:44;11.13;;;5.03;;
51384;SDS011;37478;55.682;37.462;2022-12-18T09:42:16;11.32;;;5.20;;
51384;SDS011;37478;55.682;37.462;2022-12-18T09:44:44;10.38;;;4.85;;
51384;SDS011;37478;55.682;37.462;2022-12-18T09:47:19;11.57;;;5.05;;
51384;SDS011;37478;55.682;37.462;2022-12-18T09:49:52;9.18;;;5.18;;
51384;SDS011;37478;55.682;37.462;2022-12-18T09:54:46;7.95;;;5.20;;
51384;SDS011;37478;55.682;37.462;2022-12-18T09:57:29;8.75;;;4.82;;
51384;SDS011;37478;55.682;37.462;2022-12-18T09:59:56;11.57;;;4.85;;
51384;SDS011;37478;55.682;37.462;2022-12-18T10:02:24;10.63;;;4.93;;
51384;SDS011;37478;55.682;37.462;2022-12-18T10:04:54;7.50;;;5.03;;
51384;SDS011;37478;55.682;37.462;2022-12-18T10:07:25;10.27;;;5.55;;
51384;SDS011;37478;55.682;37.462;2022-12-18T10:09:57;7.53;;;4.25;;
51384;SDS011;37478;55.682;37.462;2022-12-18T10:20:45;15.50;;;6.22;;
51384;SDS011;37478;55.682;37.462;2022-12-18T10:28:24;9.68;;;5.28;;
51384;SDS011;37478;55.682;37.462;2022-12-18T10:30:50;8.25;;;4.32;;
51384;SDS011;37478;55.682;37.462;2022-12-18T10:33:22;10.10;;;5.05;;
51384;SDS011;37478;55.682;37.462;2022-12-18T10:35:49;10.43;;;5.70;;
51384;SDS011;37478;55.682;37.462;2022-12-18T10:41:01;6.72;;;4.03;;
51384;SDS011;37478;55.682;37.462;2022-12-18T10:43:27;9.05;;;5.13;;
51384;SDS011;37478;55.682;37.462;2022-12-18T10:46:00;9.93;;;4.70;;
51384;SDS011;37478;55.682;37.462;2022-12-18T10:48:26;8.63;;;4.80;;
51384;SDS011;37478;55.682;37.462;2022-12-18T10:50:52;8.93;;;4.80;;
51384;SDS011;37478;55.682;37.462;2022-12-18T10:53:25;6.65;;;3.80;;
51384;SDS011;37478;55.682;37.462;2022-12-18T10:55:54;7.28;;;4.60;;
51384;SDS011;37478;55.682;37.462;2022-12-18T11:01:06;9.80;;;4.22;;
51384;SDS011;37478;55.682;37.462;2022-12-18T11:04:07;9.98;;;5.28;;
51384;SDS011;37478;55.682;37.462;2022-12-18T11:06:24;10.23;;;4.50;;
51384;SDS011;37478;55.682;37.462;2022-12-18T11:11:27;9.05;;;4.15;;
51384;SDS011;37478;55.682;37.462;2022-12-18T11:14:28;9.60;;;4.05;;
51384;SDS011;37478;55.682;37.462;2022-12-18T11:16:44;12.95;;;6.10;;
51384;SDS011;37478;55.682;37.462;2022-12-18T11:19:28;10.63;;;5.68;;
51384;SDS011;37478;55.682;37.462;2022-12-18T11:21:55;9.98;;;5.85;;
51384;SDS011;37478;55.682;37.462;2022-12-18T11:24:28;8.68;;;4.65;;
51384;SDS011;37478;55.682;37.462;2022-12-18T11:26:55;14.30;;;5.60;;
51384;SDS011;37478;55.682;37.462;2022-12-18T11:29:28;10.02;;;6.10;;
51384;SDS011;37478;55.682;37.462;2022-12-18T11:34:38;8.35;;;4.65;;
51384;SDS011;37478;55.682;37.462;2022-12-18T11:37:07;9.55;;;4.50;;
51384;SDS011;37478;55.682;37.462;2022-12-18T11:39:39;10.82;;;4.45;;
51384;SDS011;37478;55.682;37.462;2022-12-18T11:42:25;11.18;;;5.35;;
51384;SDS011;37478;55.682;37.462;2022-12-18T11:49:50;6.93;;;4.50;;
51384;SDS011;37478;55.682;37.462;2022-12-18T11:52:18;8.00;;;4.70;;
51384;SDS011;37478;55.682;37.462;2022-12-18T11:54:44;8.77;;;4.55;;
51384;SDS011;37478;55.682;37.462;2022-12-18T12:04:38;6.53;;;4.13;;
51384;SDS011;37478;55.682;37.462;2022-12-18T12:07:11;7.80;;;5.07;;
51384;SDS011;37478;55.682;37.462;2022-12-18T12:09:46;5.88;;;3.58;;
51384;SDS011;37478;55.682;37.462;2022-12-18T12:23:22;6.88;;;3.45;;
51384;SDS011;37478;55.682;37.462;2022-12-18T12:25:44;8.38;;;4.25;;
51384;SDS011;37478;55.682;37.462;2022-12-18T12:38:06;7.70;;;4.30;;
51384;SDS011;37478;55.682;37.462;2022-12-18T12:40:35;8.52;;;3.88;;
51384;SDS011;37478;55.682;37.462;2022-12-18T12:43:02;7.57;;;4.03;;
51384;SDS011;37478;55.682;37.462;2022-12-18T12:45:58;5.93;;;3.67;;
51384;SDS011;37478;55.682;37.462;2022-12-18T12:50:56;6.53;;;3.50;;
51384;SDS011;37478;55.682;37.462;2022-12-18T12:53:24;6.82;;;3.03;;
51384;SDS011;37478;55.682;37.462;2022-12-18T12:55:51;4.10;;;2.67;;
51384;SDS011;37478;55.682;37.462;2022-12-18T13:01:14;9.25;;;3.97;;
51384;SDS011;37478;55.682;37.462;2022-12-18T13:06:16;16.75;;;5.20;;
51384;SDS011;37478;55.682;37.462;2022-12-18T13:08:54;5.45;;;3.08;;
51384;SDS011;37478;55.682;37.462;2022-12-18T13:11:53;9.15;;;5.60;;
51384;SDS011;37478;55.682;37.462;2022-12-18T13:17:16;8.98;;;5.30;;
51384;SDS011;37478;55.682;37.462;2022-12-18T13:22:19;14.80;;;6.03;;
51384;SDS011;37478;55.682;37.462;2022-12-18T13:24:46;13.70;;;5.95;;
51384;SDS011;37478;55.682;37.462;2022-12-18T13:29:55;14.02;;;6.65;;
51384;SDS011;37478;55.682;37.462;2022-12-18T13:32:22;13.95;;;5.50;;
51384;SDS011;37478;55.682;37.462;2022-12-18T13:34:47;13.65;;;6.80;;
51384;SDS011;37478;55.682;37.462;2022-12-18T13:37:46;13.45;;;6.55;;
51384;SDS011;37478;55.682;37.462;2022-12-18T13:40:23;15.70;;;6.43;;
51384;SDS011;37478;55.682;37.462;2022-12-18T13:42:50;15.55;;;5.68;;
51384;SDS011;37478;55.682;37.462;2022-12-18T13:45:41;12.90;;;6.32;;
51384;SDS011;37478;55.682;37.462;2022-12-18T13:48:23;15.20;;;6.13;;
51384;SDS011;37478;55.682;37.462;2022-12-18T13:54:30;13.23;;;6.35;;
51384;SDS011;37478;55.682;37.462;2022-12-18T13:56:30;12.90;;;7.03;;
51384;SDS011;37478;55.682;37.462;2022-12-18T14:01:33;15.93;;;7.03;;
51384;SDS011;37478;55.682;37.462;2022-12-18T14:04:08;16.48;;;6.55;;
51384;SDS011;37478;55.682;37.462;2022-12-18T14:06:34;11.40;;;6.25;;
51384;SDS011;37478;55.682;37.462;2022-12-18T14:09:00;14.52;;;6.60;;
51384;SDS011;37478;55.682;37.462;2022-12-18T14:11:25;16.63;;;6.07;;
51384;SDS011;37478;55.682;37.462;2022-12-18T14:13:51;12.93;;;6.53;;
51384;SDS011;37478;55.682;37.462;2022-12-18T14:16:17;15.48;;;6.65;;
51384;SDS011;37478;55.682;37.462;2022-12-18T14:18:52;17.98;;;5.85;;
51384;SDS011;37478;55.682;37.462;2022-12-18T14:21:23;12.27;;;5.88;;
51384;SDS011;37478;55.682;37.462;2022-12-18T14:24:02;10.10;;;3.92;;
51384;SDS011;37478;55.682;37.462;2022-12-18T14:26:29;13.50;;;5.57;;
51384;SDS011;37478;55.682;37.462;2022-12-18T14:28:58;12.57;;;6.35;;
51384;SDS011;37478;55.682;37.462;2022-12-18T14:31:26;12.52;;;5.78;;
51384;SDS011;37478;55.682;37.462;2022-12-18T14:33:52;13.23;;;6.68;;
51384;SDS011;37478;55.682;37.462;2022-12-18T14:36:19;12.20;;;6.05;;
51384;SDS011;37478;55.682;37.462;2022-12-18T14:38:49;10.10;;;4.50;;
51384;SDS011;37478;55.682;37.462;2022-12-18T14:41:15;8.90;;;4.82;;
51384;SDS011;37478;55.682;37.462;2022-12-18T14:43:42;11.90;;;5.43;;
51384;SDS011;37478;55.682;37.462;2022-12-18T14:48:51;10.40;;;6.15;;
51384;SDS011;37478;55.682;37.462;2022-12-18T14:51:18;10.13;;;5.68;;
51384;SDS011;37478;55.682;37.462;2022-12-18T14:53:45;9.75;;;4.18;;
51384;SDS011;37478;55.682;37.462;2022-12-18T14:56:18;11.30;;;4.82;;
51384;SDS011;37478;55.682;37.462;2022-12-18T14:58:45;11.88;;;4.90;;
51384;SDS011;37478;55.682;37.462;2022-12-18T15:01:17;8.55;;;4.88;;
51384;SDS011;37478;55.682;37.462;2022-12-18T15:03:43;7.55;;;4.68;;
51384;SDS011;37478;55.682;37.462;2022-12-18T15:06:15;8.40;;;4.40;;
51384;SDS011;37478;55.682;37.462;2022-12-18T15:08:41;8.63;;;5.22;;
51384;SDS011;37478;55.682;37.462;2022-12-18T15:11:26;7.38;;;4.53;;
51384;SDS011;37478;55.682;37.462;2022-12-18T15:13:52;9.55;;;4.75;;
51384;SDS011;37478;55.682;37.462;2022-12-18T15:16:17;10.15;;;4.43;;
51384;SDS011;37478;55.682;37.462;2022-12-18T15:18:42;9.60;;;4.20;;
51384;SDS011;37478;55.682;37.462;2022-12-18T15:21:10;7.97;;;4.78;;
51384;SDS011;37478;55.682;37.462;2022-12-18T15:23:38;9.18;;;4.30;;
51384;SDS011;37478;55.682;37.462;2022-12-18T15:26:11;10.85;;;5.97;;
51384;SDS011;37478;55.682;37.462;2022-12-18T15:33:30;6.10;;;3.75;;
51384;SDS011;37478;55.682;37.462;2022-12-18T15:35:56;6.85;;;4.07;;
51384;SDS011;37478;55.682;37.462;2022-12-18T15:38:22;5.55;;;4.43;;
51384;SDS011;37478;55.682;37.462;2022-12-18T15:40:48;8.43;;;4.72;;
51384;SDS011;37478;55.682;37.462;2022-12-18T15:43:13;10.13;;;3.85;;
51384;SDS011;37478;55.682;37.462;2022-12-18T15:45:57;6.53;;;4.47;;
51384;SDS011;37478;55.682;37.462;2022-12-18T15:48:22;7.80;;;5.13;;
51384;SDS011;37478;55.682;37.462;2022-12-18T15:50:51;7.82;;;3.90;;
51384;SDS011;37478;55.682;37.462;2022-12-18T15:53:17;9.32;;;5.68;;
51384;SDS011;37478;55.682;37.462;2022-12-18T15:55:43;11.32;;;4.97;;
51384;SDS011;37478;55.682;37.462;2022-12-18T15:58:27;10.88;;;5.75;;
51384;SDS011;37478;55.682;37.462;2022-12-18T16:00:52;13.80;;;6.57;;
51384;SDS011;37478;55.682;37.462;2022-12-18T16:03:19;6.82;;;4.85;;
51384;SDS011;37478;55.682;37.462;2022-12-18T16:05:45;8.98;;;4.72;;
51384;SDS011;37478;55.682;37.462;2022-12-18T16:08:10;11.93;;;5.78;;
51384;SDS011;37478;55.682;37.462;2022-12-18T16:10:35;11.73;;;5.50;;
51384;SDS011;37478;55.682;37.462;2022-12-18T16:13:01;10.38;;;5.72;;
51384;SDS011;37478;55.682;37.462;2022-12-18T16:15:26;8.95;;;4.43;;